Time,TemperatureF,DewpointF,PressureIn,WindDirection,WindDirectionDegrees,WindSpeedMPH,WindSpeedGustMPH,Humidity,HourlyPrecipIn,Conditions,Clouds,dailyrainin,SolarRadiationWatts/m^2,SoftwareType,DateUTC
2013-05-21 00:00:00,65.7,63.3,29.92,SW,228,0.0,1.0,92,0.00,,---,0.00,0.00,VWS V14.01,2013-05-21 04:00:00,
2013-05-21 00:01:00,65.5,63.4,29.92,SW,228,0.0,1.0,93,0.00,,---,0.06,0.00,VWS V14.01,2013-05-21 04:01:00,
2013-05-21 00:02:00,65.5,63.4,29.92,SW,228,0.0,1.0,93,0.00,,---,0.06,0.00,VWS V14.01,2013-05-21 04:02:00,
2013-05-21 00:07:00,65.7,63.6,29.92,SW,228,0.0,1.0,93,0.00,,---,0.06,0.00,VWS V14.01,2013-05-21 04:07:00,
2013-05-21 00:10:00,65.6,63.2,29.92,SW,228,0.0,0.0,92,0.00,,---,0.00,0.00,VWS V14.01,2013-05-21 04:10:00,
2013-05-21 00:12:00,65.7,63.3,29.92,SW,228,0.0,0.0,92,0.00,,---,0.00,0.00,VWS V14.01,2013-05-21 04:12:00,
2013-05-21 00:17:00,65.6,63.2,29.92,SW,228,0.0,0.0,92,0.00,,---,0.00,0.00,VWS V14.01,2013-05-21 04:17:00,
2013-05-21 00:20:00,65.4,63.0,29.92,SW,228,0.0,0.0,92,0.00,,---,0.00,0.00,VWS V14.01,2013-05-21 04:20:00,
2013-05-21 00:23:00,65.5,63.1,29.92,SW,228,0.0,0.0,92,0.00,,---,0.00,0.00,VWS V14.01,2013-05-21 04:23:00,
2013-05-21 00:28:00,65.4,63.0,29.92,SW,228,0.0,0.0,92,0.00,,---,0.00,0.00,VWS V14.01,2013-05-21 04:28:00,
2013-05-21 00:30:00,65.2,63.1,29.92,SW,228,0.0,0.0,93,0.00,,---,0.00,0.00,VWS V14.01,2013-05-21 04:30:00,
2013-05-21 00:33:00,65.3,63.2,29.92,SW,228,0.0,0.0,93,0.00,,---,0.00,0.00,VWS V14.01,2013-05-21 04:33:00,
2013-05-21 00:38:00,65.3,63.2,29.92,SW,228,0.0,0.0,93,0.00,,---,0.00,0.00,VWS V14.01,2013-05-21 04:38:00,
2013-05-21 00:40:00,65.2,63.1,29.92,SW,228,0.0,0.0,93,0.00,,---,0.00,0.00,VWS V14.01,2013-05-21 04:40:00,
2013-05-21 00:43:00,65.2,63.1,29.92,SW,228,0.0,0.0,93,0.00,,---,0.00,0.00,VWS V14.01,2013-05-21 04:43:00,
2013-05-21 00:48:00,65.2,63.1,29.92,SW,228,0.0,0.0,93,0.00,,---,0.00,0.00,VWS V14.01,2013-05-21 04:48:00,
2013-05-21 00:50:00,65.0,62.9,29.92,SW,228,0.0,0.0,93,0.00,,---,0.00,0.00,VWS V14.01,2013-05-21 04:50:00,
2013-05-21 00:53:00,65.1,63.0,29.92,SW,228,0.0,0.0,93,0.00,,---,0.00,0.00,VWS V14.01,2013-05-21 04:53:00,
2013-05-21 00:58:00,65.0,62.9,29.92,SW,228,0.0,0.0,93,0.00,,---,0.00,0.00,VWS V14.01,2013-05-21 04:58:00,
2013-05-21 01:00:00,65.0,63.2,29.91,SW,228,0.0,0.0,94,0.00,,---,0.00,0.00,VWS V14.01,2013-05-21 05:00:00,
2013-05-21 01:03:00,64.9,62.8,29.92,SW,228,0.0,0.0,93,0.00,,---,0.00,0.00,VWS V14.01,2013-05-21 05:03:00,
2013-05-21 01:08:00,65.0,63.2,29.91,SW,228,0.0,0.0,94,0.00,,---,0.00,0.00,VWS V14.01,2013-05-21 05:08:00,
2013-05-21 01:10:00,64.7,62.6,29.91,SW,228,0.0,0.0,93,0.00,,---,0.00,0.00,VWS V14.01,2013-05-21 05:10:00,
2013-05-21 01:13:00,64.9,62.8,29.91,SW,228,0.0,0.0,93,0.00,,---,0.00,0.00,VWS V14.01,2013-05-21 05:13:00,
2013-05-21 01:19:00,64.7,62.6,29.91,SW,228,0.0,0.0,93,0.00,,---,0.00,0.00,VWS V14.01,2013-05-21 05:19:00,
2013-05-21 01:20:00,64.4,62.6,29.91,SW,228,0.0,0.0,94,0.00,,---,0.00,0.00,VWS V14.01,2013-05-21 05:20:00,
2013-05-21 01:24:00,64.5,62.4,29.91,SW,228,0.0,0.0,93,0.00,,---,0.00,0.00,VWS V14.01,2013-05-21 05:24:00,
2013-05-21 01:29:00,64.5,62.7,29.91,SW,228,0.0,0.0,94,0.00,,---,0.00,0.00,VWS V14.01,2013-05-21 05:29:00,
2013-05-21 01:30:00,64.4,62.6,29.91,SW,228,0.0,0.0,94,0.00,,---,0.00,0.00,VWS V14.01,2013-05-21 05:30:00,
2013-05-21 01:34:00,64.4,62.6,29.91,SW,228,0.0,0.0,94,0.00,,---,0.00,0.00,VWS V14.01,2013-05-21 05:34:00,
2013-05-21 01:39:00,64.4,62.6,29.91,SW,228,0.0,0.0,94,0.00,,---,0.00,0.00,VWS V14.01,2013-05-21 05:39:00,
2013-05-21 01:40:00,64.3,62.8,29.91,SW,228,0.0,0.0,95,0.00,,---,0.00,0.00,VWS V14.01,2013-05-21 05:40:00,
2013-05-21 01:44:00,64.3,62.5,29.91,SW,228,0.0,0.0,94,0.00,,---,0.00,0.00,VWS V14.01,2013-05-21 05:44:00,
2013-05-21 01:49:00,64.3,62.8,29.91,SW,228,0.0,0.0,95,0.00,,---,0.00,0.00,VWS V14.01,2013-05-21 05:49:00,
2013-05-21 01:50:00,64.4,62.9,29.91,SW,228,0.0,0.0,95,0.00,,---,0.00,0.00,VWS V14.01,2013-05-21 05:50:00,
2013-05-21 01:54:00,64.3,62.8,29.91,SW,228,0.0,0.0,95,0.00,,---,0.00,0.00,VWS V14.01,2013-05-21 05:54:00,
2013-05-21 01:59:00,64.4,62.9,29.91,SW,228,0.0,0.0,95,0.00,,---,0.00,0.00,VWS V14.01,2013-05-21 05:59:00,
2013-05-21 02:00:00,64.5,63.0,29.91,SW,228,0.0,0.0,95,0.00,,---,0.00,0.00,VWS V14.01,2013-05-21 06:00:00,
2013-05-21 02:04:00,64.4,62.9,29.91,SW,228,0.0,0.0,95,0.00,,---,0.00,0.00,VWS V14.01,2013-05-21 06:04:00,
2013-05-21 02:09:00,64.5,63.0,29.91,SW,228,0.0,0.0,95,0.00,,---,0.00,0.00,VWS V14.01,2013-05-21 06:09:00,
2013-05-21 02:10:00,64.3,62.8,29.91,SW,228,0.0,0.0,95,0.00,,---,0.00,0.00,VWS V14.01,2013-05-21 06:10:00,
2013-05-21 02:15:00,64.3,62.8,29.91,SW,228,0.0,0.0,95,0.00,,---,0.00,0.00,VWS V14.01,2013-05-21 06:15:00,
2013-05-21 02:20:00,64.3,62.8,29.91,SW,228,0.0,0.0,95,0.00,,---,0.00,0.00,VWS V14.01,2013-05-21 06:20:00,
2013-05-21 02:25:00,64.4,63.2,29.91,SW,228,0.0,0.0,96,0.00,,---,0.00,0.00,VWS V14.01,2013-05-21 06:25:00,
2013-05-21 02:30:00,64.3,62.8,29.92,SW,228,0.0,0.0,95,0.00,,---,0.00,0.00,VWS V14.01,2013-05-21 06:30:00,
2013-05-21 02:35:00,64.0,62.2,29.92,SW,228,0.0,0.0,94,0.00,,---,0.00,0.00,VWS V14.01,2013-05-21 06:35:00,
2013-05-21 02:40:00,63.9,62.4,29.92,SW,228,0.0,0.0,95,0.00,,---,0.00,0.00,VWS V14.01,2013-05-21 06:40:00,
2013-05-21 02:45:00,64.1,62.9,29.92,SW,228,0.0,1.0,96,0.00,,---,0.00,0.00,VWS V14.01,2013-05-21 06:45:00,
2013-05-21 02:50:00,64.5,63.3,29.92,SW,228,0.0,0.0,96,0.00,,---,0.00,0.00,VWS V14.01,2013-05-21 06:50:00,
2013-05-21 02:55:00,64.4,63.2,29.92,SW,228,0.0,0.0,96,0.00,,---,0.00,0.00,VWS V14.01,2013-05-21 06:55:00,
2013-05-21 03:00:00,64.2,62.7,29.92,SW,228,0.0,0.0,95,0.00,,---,0.00,0.00,VWS V14.01,2013-05-21 07:00:00,
2013-05-21 03:05:00,64.2,62.7,29.92,SW,228,0.0,0.0,95,0.00,,---,0.00,0.00,VWS V14.01,2013-05-21 07:05:00,
2013-05-21 03:10:00,64.2,63.0,29.92,SW,228,0.0,0.0,96,0.00,,---,0.00,0.00,VWS V14.01,2013-05-21 07:10:00,
2013-05-21 03:16:00,64.1,62.6,29.92,SW,228,0.0,0.0,95,0.00,,---,0.00,0.00,VWS V14.01,2013-05-21 07:16:00,
2013-05-21 03:20:00,63.6,62.4,29.92,SW,228,0.0,0.0,96,0.00,,---,0.00,0.00,VWS V14.01,2013-05-21 07:20:00,
2013-05-21 03:21:00,63.8,62.3,29.92,SW,228,0.0,0.0,95,0.00,,---,0.00,0.00,VWS V14.01,2013-05-21 07:21:00,
2013-05-21 03:26:00,63.6,62.2,29.92,SW,228,0.0,0.0,95,0.00,,---,0.00,0.00,VWS V14.01,2013-05-21 07:26:00,
2013-05-21 03:30:00,63.6,62.2,29.92,SW,228,0.0,0.0,95,0.00,,---,0.00,0.00,VWS V14.01,2013-05-21 07:30:00,
2013-05-21 03:31:00,63.7,62.5,29.92,SW,228,0.0,0.0,96,0.00,,---,0.00,0.00,VWS V14.01,2013-05-21 07:31:00,
2013-05-21 03:36:00,63.8,62.6,29.92,SW,228,0.0,0.0,96,0.00,,---,0.00,0.00,VWS V14.01,2013-05-21 07:36:00,
2013-05-21 03:40:00,63.4,62.2,29.91,SW,228,0.0,0.0,96,0.00,,---,0.00,0.00,VWS V14.01,2013-05-21 07:40:00,
2013-05-21 03:41:00,63.4,62.0,29.92,SW,228,0.0,0.0,95,0.00,,---,0.00,0.00,VWS V14.01,2013-05-21 07:41:00,
2013-05-21 03:46:00,63.4,62.2,29.92,SW,228,0.0,0.0,96,0.00,,---,0.00,0.00,VWS V14.01,2013-05-21 07:46:00,
2013-05-21 03:50:00,63.2,62.0,29.91,SW,228,0.0,0.0,96,0.00,,---,0.00,0.00,VWS V14.01,2013-05-21 07:50:00,
2013-05-21 03:51:00,63.3,62.1,29.92,SW,228,0.0,0.0,96,0.00,,---,0.00,0.00,VWS V14.01,2013-05-21 07:51:00,
2013-05-21 03:56:00,63.2,62.0,29.91,SW,228,0.0,0.0,96,0.00,,---,0.00,0.00,VWS V14.01,2013-05-21 07:56:00,
2013-05-21 04:00:00,63.6,62.7,29.91,SW,228,0.0,1.0,97,0.00,,---,0.00,0.00,VWS V14.01,2013-05-21 08:00:00,
2013-05-21 04:01:00,63.3,62.1,29.91,SW,228,0.0,0.0,96,0.00,,---,0.00,0.00,VWS V14.01,2013-05-21 08:01:00,
2013-05-21 04:07:00,63.6,62.7,29.91,SW,228,0.0,1.0,97,0.00,,---,0.00,0.00,VWS V14.01,2013-05-21 08:07:00,
2013-05-21 04:10:00,63.8,62.9,29.91,SW,228,0.0,1.0,97,0.00,,---,0.00,0.00,VWS V14.01,2013-05-21 08:10:00,
2013-05-21 04:12:00,63.7,62.8,29.91,SW,228,0.0,1.0,97,0.00,,---,0.00,0.00,VWS V14.01,2013-05-21 08:12:00,
2013-05-21 04:17:00,63.8,62.9,29.91,SW,228,0.0,1.0,97,0.00,,---,0.00,0.00,VWS V14.01,2013-05-21 08:17:00,
2013-05-21 04:20:00,63.9,63.0,29.91,SW,228,0.0,0.0,97,0.00,,---,0.00,0.00,VWS V14.01,2013-05-21 08:20:00,
2013-05-21 04:22:00,63.8,62.9,29.91,SW,228,0.0,0.0,97,0.00,,---,0.00,0.00,VWS V14.01,2013-05-21 08:22:00,
2013-05-21 04:27:00,63.9,63.0,29.91,SW,228,0.0,0.0,97,0.00,,---,0.00,0.00,VWS V14.01,2013-05-21 08:27:00,
2013-05-21 04:30:00,63.7,62.5,29.92,SW,228,0.0,1.0,96,0.00,,---,0.00,0.00,VWS V14.01,2013-05-21 08:30:00,
2013-05-21 04:32:00,63.8,62.6,29.91,SW,228,0.0,0.0,96,0.00,,---,0.00,0.00,VWS V14.01,2013-05-21 08:32:00,
2013-05-21 04:37:00,63.7,62.5,29.92,SW,228,0.0,1.0,96,0.00,,---,0.00,0.00,VWS V14.01,2013-05-21 08:37:00,
2013-05-21 04:40:00,63.4,62.2,29.92,SW,228,0.0,0.0,96,0.00,,---,0.00,0.00,VWS V14.01,2013-05-21 08:40:00,
2013-05-21 04:42:00,63.6,62.4,29.92,SW,228,0.0,0.0,96,0.00,,---,0.00,0.00,VWS V14.01,2013-05-21 08:42:00,
2013-05-21 04:47:00,63.4,62.2,29.92,SW,228,0.0,0.0,96,0.00,,---,0.00,0.00,VWS V14.01,2013-05-21 08:47:00,
2013-05-21 04:50:00,63.6,62.4,29.92,SW,228,0.0,0.0,96,0.00,,---,0.00,0.00,VWS V14.01,2013-05-21 08:50:00,
2013-05-21 04:52:00,63.5,62.3,29.92,SW,228,0.0,0.0,96,0.00,,---,0.00,0.00,VWS V14.01,2013-05-21 08:52:00,
2013-05-21 04:58:00,63.6,62.4,29.92,SW,228,0.0,0.0,96,0.00,,---,0.00,0.00,VWS V14.01,2013-05-21 08:58:00,
2013-05-21 05:00:00,63.4,62.2,29.92,SW,228,0.0,0.0,96,0.00,,---,0.00,0.00,VWS V14.01,2013-05-21 09:00:00,
2013-05-21 05:03:00,63.6,62.4,29.92,SW,228,0.0,0.0,96,0.00,,---,0.00,0.00,VWS V14.01,2013-05-21 09:03:00,
2013-05-21 05:08:00,63.4,62.2,29.92,SW,228,0.0,0.0,96,0.00,,---,0.00,0.00,VWS V14.01,2013-05-21 09:08:00,
2013-05-21 05:10:00,63.1,61.9,29.92,SW,228,0.0,0.0,96,0.00,,---,0.00,0.00,VWS V14.01,2013-05-21 09:10:00,
2013-05-21 05:13:00,63.2,62.0,29.92,SW,228,0.0,0.0,96,0.00,,---,0.00,0.00,VWS V14.01,2013-05-21 09:13:00,
2013-05-21 05:18:00,63.1,61.9,29.92,SW,228,0.0,0.0,96,0.00,,---,0.00,0.00,VWS V14.01,2013-05-21 09:18:00,
2013-05-21 05:20:00,63.1,62.2,29.92,SW,228,0.0,0.0,97,0.00,,---,0.00,0.00,VWS V14.01,2013-05-21 09:20:00,
2013-05-21 05:23:00,63.1,61.9,29.92,SW,228,0.0,0.0,96,0.00,,---,0.00,0.00,VWS V14.01,2013-05-21 09:23:00,
2013-05-21 05:28:00,63.1,62.2,29.92,SW,228,0.0,0.0,97,0.00,,---,0.00,0.00,VWS V14.01,2013-05-21 09:28:00,
2013-05-21 05:30:00,62.8,61.7,29.92,SW,228,0.0,0.0,96,0.00,,---,0.00,0.00,VWS V14.01,2013-05-21 09:30:00,
2013-05-21 05:33:00,63.0,61.8,29.92,SW,228,0.0,0.0,96,0.00,,---,0.00,0.00,VWS V14.01,2013-05-21 09:33:00,
2013-05-21 05:38:00,62.8,61.7,29.92,SW,228,0.0,0.0,96,0.00,,---,0.00,0.00,VWS V14.01,2013-05-21 09:38:00,
2013-05-21 05:40:00,62.5,61.3,29.93,SW,228,0.0,0.0,96,0.00,,---,0.00,0.00,VWS V14.01,2013-05-21 09:40:00,
2013-05-21 05:43:00,62.6,61.5,29.92,SW,228,0.0,0.0,96,0.00,,---,0.00,0.00,VWS V14.01,2013-05-21 09:43:00,
2013-05-21 05:48:00,62.5,61.3,29.93,SW,228,0.0,0.0,96,0.00,,---,0.00,0.00,VWS V14.01,2013-05-21 09:48:00,
2013-05-21 05:50:00,62.9,62.0,29.93,SW,228,0.0,0.0,97,0.00,,---,0.00,0.00,VWS V14.01,2013-05-21 09:50:00,
2013-05-21 05:54:00,62.8,61.9,29.93,SW,228,0.0,0.0,97,0.00,,---,0.00,0.00,VWS V14.01,2013-05-21 09:54:00,
2013-05-21 05:59:00,62.9,62.0,29.93,SW,228,0.0,0.0,97,0.00,,---,0.00,0.00,VWS V14.01,2013-05-21 09:59:00,
2013-05-21 06:00:00,62.3,61.2,29.93,SW,228,0.0,0.0,96,0.00,,---,0.00,0.00,VWS V14.01,2013-05-21 10:00:00,
2013-05-21 06:04:00,62.6,61.5,29.93,SW,228,0.0,0.0,96,0.00,,---,0.00,0.00,VWS V14.01,2013-05-21 10:04:00,
2013-05-21 06:09:00,62.3,61.2,29.93,SW,228,0.0,0.0,96,0.00,,---,0.00,0.00,VWS V14.01,2013-05-21 10:09:00,
2013-05-21 06:10:00,62.3,61.4,29.93,SW,228,0.0,0.0,97,0.00,,---,0.00,0.00,VWS V14.01,2013-05-21 10:10:00,
2013-05-21 06:14:00,62.2,61.0,29.93,SW,228,0.0,0.0,96,0.00,,---,0.00,0.00,VWS V14.01,2013-05-21 10:14:00,
2013-05-21 06:19:00,62.3,61.4,29.93,SW,228,0.0,0.0,97,0.00,,---,0.00,0.00,VWS V14.01,2013-05-21 10:19:00,
2013-05-21 06:20:00,62.2,61.3,29.93,SW,228,0.0,0.0,97,0.00,,---,0.00,7.00,VWS V14.01,2013-05-21 10:20:00,
2013-05-21 06:24:00,62.2,61.3,29.93,SW,228,0.0,0.0,97,0.00,,---,0.00,5.00,VWS V14.01,2013-05-21 10:24:00,
2013-05-21 06:29:00,62.2,61.3,29.93,SW,228,0.0,0.0,97,0.00,,---,0.00,7.00,VWS V14.01,2013-05-21 10:29:00,
2013-05-21 06:30:00,62.4,61.5,29.93,SW,228,0.0,0.0,97,0.00,,---,0.00,12.00,VWS V14.01,2013-05-21 10:30:00,
2013-05-21 06:34:00,62.4,61.5,29.93,SW,228,0.0,0.0,97,0.00,,---,0.00,11.00,VWS V14.01,2013-05-21 10:34:00,
2013-05-21 06:39:00,62.3,61.4,29.93,SW,228,0.0,0.0,97,0.00,,---,0.00,12.00,VWS V14.01,2013-05-21 10:39:00,
2013-05-21 06:40:00,62.1,61.2,29.93,SW,228,0.0,0.0,97,0.00,,---,0.00,19.00,VWS V14.01,2013-05-21 10:40:00,
2013-05-21 06:44:00,62.2,61.3,29.93,SW,228,0.0,0.0,97,0.00,,---,0.00,16.00,VWS V14.01,2013-05-21 10:44:00,
2013-05-21 06:50:00,62.1,61.2,29.93,SW,228,0.0,0.0,97,0.00,,---,0.00,19.00,VWS V14.01,2013-05-21 10:50:00,
2013-05-21 06:55:00,62.0,61.1,29.93,SW,228,0.0,0.0,97,0.00,,---,0.00,23.00,VWS V14.01,2013-05-21 10:55:00,
2013-05-21 07:00:00,61.9,61.0,29.93,SW,228,0.0,0.0,97,0.00,,---,0.00,26.00,VWS V14.01,2013-05-21 11:00:00,
2013-05-21 07:05:00,61.6,60.5,29.94,SW,228,0.0,0.0,96,0.00,,---,0.00,30.00,VWS V14.01,2013-05-21 11:05:00,
2013-05-21 07:10:00,61.5,60.6,29.93,SW,228,0.0,0.0,97,0.00,,---,0.00,32.00,VWS V14.01,2013-05-21 11:10:00,
2013-05-21 07:15:00,61.8,60.9,29.94,SW,228,0.0,0.0,97,0.00,,---,0.00,35.00,VWS V14.01,2013-05-21 11:15:00,
2013-05-21 07:20:00,62.1,61.5,29.94,SW,228,0.0,0.0,98,0.00,,---,0.00,39.00,VWS V14.01,2013-05-21 11:20:00,
2013-05-21 07:25:00,62.2,61.6,29.94,SW,228,0.0,0.0,98,0.00,,---,0.00,40.00,VWS V14.01,2013-05-21 11:25:00,
2013-05-21 07:30:00,62.4,61.8,29.94,SW,228,0.0,0.0,98,0.00,,---,0.00,46.00,VWS V14.01,2013-05-21 11:30:00,
2013-05-21 07:35:00,62.6,62.0,29.94,SW,228,0.0,0.0,98,0.00,,---,0.00,53.00,VWS V14.01,2013-05-21 11:35:00,
2013-05-21 07:40:00,62.9,62.3,29.94,SW,228,0.0,0.0,98,0.00,,---,0.00,91.00,VWS V14.01,2013-05-21 11:40:00,
2013-05-21 07:45:00,63.3,62.7,29.94,SW,228,0.0,0.0,98,0.00,,---,0.00,62.00,VWS V14.01,2013-05-21 11:45:00,
2013-05-21 07:50:00,64.1,63.5,29.95,SW,228,0.0,0.0,98,0.00,,---,0.00,104.00,VWS V14.01,2013-05-21 11:50:00,
2013-05-21 07:51:00,63.6,63.0,29.95,SW,228,0.0,0.0,98,0.00,,---,0.00,130.00,VWS V14.01,2013-05-21 11:51:00,
2013-05-21 07:56:00,63.9,63.3,29.95,SW,228,0.0,0.0,98,0.00,,---,0.00,100.00,VWS V14.01,2013-05-21 11:56:00,
2013-05-21 08:00:00,64.9,64.3,29.95,SW,228,0.0,0.0,98,0.00,,---,0.00,120.00,VWS V14.01,2013-05-21 12:00:00,
2013-05-21 08:01:00,64.3,63.7,29.95,SW,228,0.0,0.0,98,0.00,,---,0.00,172.00,VWS V14.01,2013-05-21 12:01:00,
2013-05-21 08:06:00,64.7,64.1,29.95,SW,228,0.0,0.0,98,0.00,,---,0.00,77.00,VWS V14.01,2013-05-21 12:06:00,
2013-05-21 08:10:00,65.7,65.1,29.95,SW,228,0.0,0.0,98,0.00,,---,0.00,209.00,VWS V14.01,2013-05-21 12:10:00,
2013-05-21 08:11:00,65.1,64.5,29.95,SW,228,0.0,0.0,98,0.00,,---,0.00,72.00,VWS V14.01,2013-05-21 12:11:00,
2013-05-21 08:16:00,65.5,64.9,29.95,SW,228,0.0,0.0,98,0.00,,---,0.00,190.00,VWS V14.01,2013-05-21 12:16:00,
2013-05-21 08:20:00,66.7,66.4,29.96,SW,228,0.0,0.0,99,0.00,,---,0.00,278.00,VWS V14.01,2013-05-21 12:20:00,
2013-05-21 08:21:00,65.9,65.3,29.96,SW,228,0.0,0.0,98,0.00,,---,0.00,271.00,VWS V14.01,2013-05-21 12:21:00,
2013-05-21 08:26:00,66.5,65.9,29.96,SW,228,0.0,0.0,98,0.00,,---,0.00,118.00,VWS V14.01,2013-05-21 12:26:00,
2013-05-21 08:30:00,68.1,67.8,29.96,SW,228,0.0,0.0,99,0.00,,---,0.00,288.00,VWS V14.01,2013-05-21 12:30:00,
2013-05-21 08:31:00,67.1,66.5,29.96,SW,228,0.0,0.0,98,0.00,,---,0.00,276.00,VWS V14.01,2013-05-21 12:31:00,
2013-05-21 08:36:00,67.9,67.3,29.96,SW,228,0.0,0.0,98,0.00,,---,0.00,283.00,VWS V14.01,2013-05-21 12:36:00,
2013-05-21 08:40:00,68.7,67.8,29.96,SW,228,0.0,1.0,97,0.00,,---,0.00,313.00,VWS V14.01,2013-05-21 12:40:00,
2013-05-21 08:41:00,68.4,67.8,29.96,SW,228,0.0,0.0,98,0.00,,---,0.00,302.00,VWS V14.01,2013-05-21 12:41:00,
2013-05-21 08:47:00,68.5,67.9,29.96,SW,228,0.0,1.0,98,0.00,,---,0.00,318.00,VWS V14.01,2013-05-21 12:47:00,
2013-05-21 08:50:00,70.1,68.6,29.97,SW,228,0.0,1.0,95,0.00,,---,0.00,373.00,VWS V14.01,2013-05-21 12:50:00,
2013-05-21 08:52:00,69.1,67.9,29.96,SW,228,0.0,1.0,96,0.00,,---,0.00,348.00,VWS V14.01,2013-05-21 12:52:00,
2013-05-21 08:57:00,69.9,68.7,29.96,SW,228,0.0,1.0,96,0.00,,---,0.00,371.00,VWS V14.01,2013-05-21 12:57:00,
2013-05-21 09:00:00,70.9,67.8,29.97,SW,228,0.0,1.0,90,0.00,,---,0.00,343.00,VWS V14.01,2013-05-21 13:00:00,
2013-05-21 09:02:00,70.6,68.8,29.96,SW,228,0.0,0.0,94,0.00,,---,0.00,381.00,VWS V14.01,2013-05-21 13:02:00,
2013-05-21 09:07:00,71.0,68.2,29.97,SW,228,0.0,1.0,91,0.00,,---,0.00,322.00,VWS V14.01,2013-05-21 13:07:00,
2013-05-21 09:10:00,71.2,68.1,29.97,SW,228,0.0,2.0,90,0.00,,---,0.00,441.00,VWS V14.01,2013-05-21 13:10:00,
2013-05-21 09:12:00,70.8,67.7,29.97,SW,223,0.0,1.0,90,0.00,,---,0.00,378.00,VWS V14.01,2013-05-21 13:12:00,
2013-05-21 09:17:00,71.1,68.0,29.97,SW,223,0.0,1.0,90,0.00,,---,0.00,417.00,VWS V14.01,2013-05-21 13:17:00,
2013-05-21 09:20:00,71.8,68.1,29.97,NNW,340,0.0,3.0,88,0.00,,---,0.00,466.00,VWS V14.01,2013-05-21 13:20:00,
2013-05-21 09:22:00,71.5,68.1,29.97,NNW,343,0.0,3.0,89,0.00,,---,0.00,454.00,VWS V14.01,2013-05-21 13:22:00,
2013-05-21 09:27:00,71.8,68.4,29.97,NNW,340,1.0,3.0,89,0.00,,---,0.00,452.00,VWS V14.01,2013-05-21 13:27:00,
2013-05-21 09:30:00,72.3,68.6,29.97,NNW,338,1.0,2.0,88,0.00,,---,0.00,510.00,VWS V14.01,2013-05-21 13:30:00,
2013-05-21 09:32:00,72.0,68.6,29.97,NNW,340,0.0,1.0,89,0.00,,---,0.00,480.00,VWS V14.01,2013-05-21 13:32:00,
2013-05-21 09:38:00,72.2,68.4,29.97,NNW,339,0.0,2.0,88,0.00,,---,0.00,504.00,VWS V14.01,2013-05-21 13:38:00,
2013-05-21 09:40:00,72.8,69.0,29.97,NW,317,0.0,3.0,88,0.00,,---,0.00,506.00,VWS V14.01,2013-05-21 13:40:00,
2013-05-21 09:43:00,72.5,68.4,29.97,NW,315,0.0,3.0,87,0.00,,---,0.00,533.00,VWS V14.01,2013-05-21 13:43:00,
2013-05-21 09:48:00,72.7,68.9,29.97,NW,318,0.0,3.0,88,0.00,,---,0.00,517.00,VWS V14.01,2013-05-21 13:48:00,
2013-05-21 09:50:00,73.6,69.5,29.97,NW,318,0.0,2.0,87,0.00,,---,0.00,582.00,VWS V14.01,2013-05-21 13:50:00,
2013-05-21 09:53:00,73.1,68.7,29.97,NW,319,0.0,2.0,86,0.00,,---,0.00,568.00,VWS V14.01,2013-05-21 13:53:00,
2013-05-21 09:58:00,73.6,69.5,29.97,NW,318,2.0,2.0,87,0.00,,---,0.00,591.00,VWS V14.01,2013-05-21 13:58:00,
2013-05-21 10:00:00,74.3,69.5,29.97,WNW,291,2.0,2.0,85,0.00,,---,0.00,613.00,VWS V14.01,2013-05-21 14:00:00,
2013-05-21 10:03:00,74.0,69.2,29.97,NW,316,1.0,2.0,85,0.00,,---,0.00,619.00,VWS V14.01,2013-05-21 14:03:00,
2013-05-21 10:08:00,74.3,69.5,29.97,WNW,297,1.0,2.0,85,0.00,,---,0.00,603.00,VWS V14.01,2013-05-21 14:08:00,
2013-05-21 10:10:00,74.9,70.1,29.96,WSW,257,0.0,3.0,85,0.00,,---,0.00,596.00,VWS V14.01,2013-05-21 14:10:00,
2013-05-21 10:13:00,74.6,69.4,29.97,West,259,2.0,3.0,84,0.00,,---,0.00,640.00,VWS V14.01,2013-05-21 14:13:00,
2013-05-21 10:18:00,74.8,70.0,29.96,WSW,257,0.0,3.0,85,0.00,,---,0.00,612.00,VWS V14.01,2013-05-21 14:18:00,
2013-05-21 10:20:00,75.7,70.2,29.97,NNE,32,0.0,3.0,83,0.00,,---,0.00,729.00,VWS V14.01,2013-05-21 14:20:00,
2013-05-21 10:23:00,75.4,70.6,29.96,NE,36,1.0,3.0,85,0.00,,---,0.00,705.00,VWS V14.01,2013-05-21 14:23:00,
2013-05-21 10:29:00,75.7,70.2,29.97,NNE,32,0.0,3.0,83,0.00,,---,0.00,729.00,VWS V14.01,2013-05-21 14:29:00,
2013-05-21 10:30:00,76.1,70.2,29.96,NNW,339,0.0,3.0,82,0.00,,---,0.00,830.00,VWS V14.01,2013-05-21 14:30:00,
2013-05-21 10:34:00,75.9,69.7,29.97,NW,309,1.0,3.0,81,0.00,,---,0.00,708.00,VWS V14.01,2013-05-21 14:34:00,
2013-05-21 10:39:00,76.1,70.2,29.96,NNW,339,0.0,0.0,82,0.00,,---,0.00,830.00,VWS V14.01,2013-05-21 14:39:00,
2013-05-21 10:40:00,76.3,69.7,29.97,WNW,299,0.0,4.0,80,0.00,,---,0.00,396.00,VWS V14.01,2013-05-21 14:40:00,
2013-05-21 10:44:00,76.4,70.5,29.96,NNW,340,0.0,3.0,82,0.00,,---,0.00,336.00,VWS V14.01,2013-05-21 14:44:00,
2013-05-21 10:49:00,76.3,69.7,29.96,WNW,300,0.0,1.0,80,0.00,,---,0.00,396.00,VWS V14.01,2013-05-21 14:49:00,
2013-05-21 10:50:00,76.1,69.8,29.95,West,271,0.0,2.0,81,0.00,,---,0.00,835.00,VWS V14.01,2013-05-21 14:50:00,
2013-05-21 10:54:00,76.2,70.3,29.96,West,271,1.0,2.0,82,0.00,,---,0.00,357.00,VWS V14.01,2013-05-21 14:54:00,
2013-05-21 10:59:00,76.1,69.5,29.96,West,271,0.0,0.0,80,0.00,,---,0.00,889.00,VWS V14.01,2013-05-21 14:59:00,
2013-05-21 11:00:00,76.2,69.9,29.96,SW,225,0.0,6.0,81,0.00,,---,0.00,318.00,VWS V14.01,2013-05-21 15:00:00,
2013-05-21 11:04:00,76.2,69.2,29.96,WNW,285,1.0,2.0,79,0.00,,---,0.00,712.00,VWS V14.01,2013-05-21 15:04:00,
2013-05-21 11:09:00,76.2,69.9,29.96,SW,228,1.0,2.0,81,0.00,,---,0.00,318.00,VWS V14.01,2013-05-21 15:09:00,
2013-05-21 11:10:00,76.3,69.7,29.96,WSW,246,1.0,5.0,80,0.00,,---,0.00,345.00,VWS V14.01,2013-05-21 15:10:00,
2013-05-21 11:14:00,76.2,69.6,29.96,SW,228,0.0,4.0,80,0.00,,---,0.00,485.00,VWS V14.01,2013-05-21 15:14:00,
2013-05-21 11:20:00,76.2,69.2,29.96,WSW,246,0.0,2.0,79,0.00,,---,0.00,345.00,VWS V14.01,2013-05-21 15:20:00,
2013-05-21 11:25:00,76.2,69.2,29.96,WSW,250,0.0,2.0,79,0.00,,---,0.00,260.00,VWS V14.01,2013-05-21 15:25:00,
2013-05-21 11:30:00,76.1,68.8,29.96,WSW,250,0.0,1.0,78,0.00,,---,0.00,322.00,VWS V14.01,2013-05-21 15:30:00,
2013-05-21 11:35:00,76.0,69.4,29.96,NNE,15,0.0,2.0,80,0.00,,---,0.00,202.00,VWS V14.01,2013-05-21 15:35:00,
2013-05-21 11:40:00,76.0,68.7,29.96,WSW,240,0.0,1.0,78,0.00,,---,0.00,234.00,VWS V14.01,2013-05-21 15:40:00,
2013-05-21 11:45:00,76.5,69.9,29.95,WSW,244,0.0,2.0,80,0.00,,---,0.00,1021.00,VWS V14.01,2013-05-21 15:45:00,
2013-05-21 11:50:00,76.9,69.5,29.95,WSW,244,0.0,1.0,78,0.00,,---,0.00,288.00,VWS V14.01,2013-05-21 15:50:00,
2013-05-21 11:55:00,77.1,69.0,29.96,WSW,244,0.0,1.0,76,0.00,,---,0.00,211.00,VWS V14.01,2013-05-21 15:55:00,
2013-05-21 12:00:00,77.1,69.7,29.95,WNW,287,0.0,3.0,78,0.00,,---,0.00,976.00,VWS V14.01,2013-05-21 16:00:00,
2013-05-21 12:05:00,77.3,68.8,29.95,West,275,3.0,3.0,75,0.00,,---,0.00,1027.00,VWS V14.01,2013-05-21 16:05:00,
2013-05-21 12:10:00,78.7,69.7,29.95,SW,230,5.0,5.0,74,0.00,,---,0.00,703.00,VWS V14.01,2013-05-21 16:10:00,
2013-05-21 12:11:00,78.0,69.4,29.95,WSW,251,0.0,2.0,75,0.00,,---,0.00,345.00,VWS V14.01,2013-05-21 16:11:00,
2013-05-21 12:16:00,78.5,69.1,29.95,WSW,247,0.0,3.0,73,0.00,,---,0.00,1076.00,VWS V14.01,2013-05-21 16:16:00,
2013-05-21 12:20:00,78.5,69.9,29.94,SW,225,2.0,6.0,75,0.00,,---,0.00,315.00,VWS V14.01,2013-05-21 16:20:00,
2013-05-21 12:21:00,78.6,69.2,29.95,WSW,238,2.0,6.0,73,0.00,,---,0.00,362.00,VWS V14.01,2013-05-21 16:21:00,
2013-05-21 12:26:00,78.5,69.1,29.95,North,5,0.0,6.0,73,0.00,,---,0.00,406.00,VWS V14.01,2013-05-21 16:26:00,
2013-05-21 12:30:00,78.4,69.0,29.94,SW,226,0.0,4.0,73,0.00,,---,0.00,1127.00,VWS V14.01,2013-05-21 16:30:00,
2013-05-21 12:31:00,78.6,70.0,29.94,SW,225,0.0,4.0,75,0.00,,---,0.00,341.00,VWS V14.01,2013-05-21 16:31:00,
2013-05-21 12:36:00,78.4,68.2,29.94,SW,226,0.0,4.0,71,0.00,,---,0.00,323.00,VWS V14.01,2013-05-21 16:36:00,
2013-05-21 12:40:00,78.6,68.8,29.94,West,276,0.0,2.0,72,0.00,,---,0.00,1014.00,VWS V14.01,2013-05-21 16:40:00,
2013-05-21 12:41:00,78.5,69.5,29.94,SW,227,0.0,1.0,74,0.00,,---,0.00,281.00,VWS V14.01,2013-05-21 16:41:00,
2013-05-21 12:46:00,78.6,68.8,29.94,West,276,0.0,2.0,72,0.00,,---,0.00,316.00,VWS V14.01,2013-05-21 16:46:00,
2013-05-21 12:49:00,79.3,69.9,29.93,West,276,1.0,2.0,73,0.00,,---,0.00,993.00,VWS V14.01,2013-05-21 16:49:00,
2013-05-21 12:50:00,79.3,69.9,29.93,West,276,0.0,2.0,73,0.00,,---,0.00,993.00,VWS V14.01,2013-05-21 16:50:00,
2013-05-21 12:51:00,78.7,69.3,29.94,West,276,0.0,2.0,73,0.00,,---,0.00,979.00,VWS V14.01,2013-05-21 16:51:00,
2013-05-21 12:56:00,79.1,68.5,29.93,West,276,0.0,2.0,70,0.00,,---,0.00,988.00,VWS V14.01,2013-05-21 16:56:00,
2013-05-21 13:00:00,80.1,69.4,29.92,West,279,0.0,4.0,70,0.00,,---,0.00,1041.00,VWS V14.01,2013-05-21 17:00:00,
2013-05-21 13:02:00,79.6,69.8,29.93,WNW,290,1.0,4.0,72,0.00,,---,0.00,1000.00,VWS V14.01,2013-05-21 17:02:00,
2013-05-21 13:07:00,80.0,68.5,29.92,West,275,0.0,4.0,68,0.00,,---,0.00,1035.00,VWS V14.01,2013-05-21 17:07:00,
2013-05-21 13:10:00,81.0,70.7,29.92,NNW,339,0.0,6.0,71,0.00,,---,0.00,1018.00,VWS V14.01,2013-05-21 17:10:00,
2013-05-21 13:12:00,80.3,70.9,29.92,WNW,290,0.0,2.0,73,0.00,,---,0.00,1007.00,VWS V14.01,2013-05-21 17:12:00,
2013-05-21 13:17:00,80.9,71.0,29.92,NE,34,2.0,5.0,72,0.00,,---,0.00,1018.00,VWS V14.01,2013-05-21 17:17:00,
2013-05-21 13:20:00,80.8,71.3,29.91,North,360,0.0,10.0,73,0.00,,---,0.00,1069.00,VWS V14.01,2013-05-21 17:20:00,
2013-05-21 13:22:00,80.9,68.9,29.92,North,355,1.0,10.0,67,0.00,,---,0.00,1023.00,VWS V14.01,2013-05-21 17:22:00,
2013-05-21 13:27:00,80.7,70.4,29.92,North,360,0.0,10.0,71,0.00,,---,0.00,1083.00,VWS V14.01,2013-05-21 17:27:00,
2013-05-21 13:30:00,81.4,69.4,29.91,West,270,0.0,5.0,67,0.00,,---,0.00,1132.00,VWS V14.01,2013-05-21 17:30:00,
2013-05-21 13:32:00,81.3,71.0,29.91,North,360,0.0,2.0,71,0.00,,---,0.00,1102.00,VWS V14.01,2013-05-21 17:32:00,
2013-05-21 13:37:00,81.5,69.1,29.91,West,269,0.0,5.0,66,0.00,,---,0.00,1035.00,VWS V14.01,2013-05-21 17:37:00,
2013-05-21 13:40:00,82.0,70.4,29.90,WSW,246,1.0,5.0,68,0.00,,---,0.00,1179.00,VWS V14.01,2013-05-21 17:40:00,
2013-05-21 13:42:00,81.4,70.3,29.91,NW,306,0.0,3.0,69,0.00,,---,0.00,1164.00,VWS V14.01,2013-05-21 17:42:00,
2013-05-21 13:48:00,81.9,70.7,29.90,WSW,240,2.0,4.0,69,0.00,,---,0.00,1183.00,VWS V14.01,2013-05-21 17:48:00,
2013-05-21 13:50:00,82.2,68.4,29.90,WSW,240,0.0,6.0,63,0.00,,---,0.00,325.00,VWS V14.01,2013-05-21 17:50:00,
2013-05-21 13:53:00,82.4,70.3,29.90,NW,313,0.0,3.0,67,0.00,,---,0.00,1172.00,VWS V14.01,2013-05-21 17:53:00,
2013-05-21 13:58:00,82.4,68.6,29.90,WSW,240,0.0,6.0,63,0.00,,---,0.00,313.00,VWS V14.01,2013-05-21 17:58:00,
2013-05-21 14:00:00,81.8,69.3,29.90,WNW,285,0.0,4.0,66,0.00,,---,0.00,1125.00,VWS V14.01,2013-05-21 18:00:00,
2013-05-21 14:03:00,81.7,70.1,29.90,NW,306,3.0,3.0,68,0.00,,---,0.00,1172.00,VWS V14.01,2013-05-21 18:03:00,
2013-05-21 14:08:00,81.8,69.3,29.90,WNW,285,1.0,4.0,66,0.00,,---,0.00,1134.00,VWS V14.01,2013-05-21 18:08:00,
2013-05-21 14:10:00,82.3,71.1,29.89,ENE,62,0.0,3.0,69,0.00,,---,0.00,1056.00,VWS V14.01,2013-05-21 18:10:00,
2013-05-21 14:13:00,81.8,68.4,29.90,ENE,63,1.0,3.0,64,0.00,,---,0.00,1164.00,VWS V14.01,2013-05-21 18:13:00,
2013-05-21 14:18:00,82.2,71.0,29.89,ENE,63,0.0,3.0,69,0.00,,---,0.00,1056.00,VWS V14.01,2013-05-21 18:18:00,
2013-05-21 14:20:00,83.7,72.5,29.89,NE,56,0.0,3.0,69,0.00,,---,0.00,1037.00,VWS V14.01,2013-05-21 18:20:00,
2013-05-21 14:23:00,83.0,73.5,29.89,ENE,62,0.0,2.0,73,0.00,,---,0.00,1035.00,VWS V14.01,2013-05-21 18:23:00,
2013-05-21 14:29:00,83.7,72.5,29.89,NE,56,0.0,3.0,69,0.00,,---,0.00,1037.00,VWS V14.01,2013-05-21 18:29:00,
2013-05-21 14:30:00,83.8,70.3,29.89,WNW,291,0.0,4.0,64,0.00,,---,0.00,984.00,VWS V14.01,2013-05-21 18:30:00,
2013-05-21 14:34:00,83.8,70.3,29.88,NNW,338,0.0,4.0,64,0.00,,---,0.00,1042.00,VWS V14.01,2013-05-21 18:34:00,
2013-05-21 14:39:00,83.8,70.3,29.89,WNW,291,0.0,4.0,64,0.00,,---,0.00,984.00,VWS V14.01,2013-05-21 18:39:00,
2013-05-21 14:40:00,83.3,70.3,29.89,NE,36,2.0,3.0,65,0.00,,---,0.00,935.00,VWS V14.01,2013-05-21 18:40:00,
2013-05-21 14:44:00,83.2,69.3,29.88,SW,219,0.0,3.0,63,0.00,,---,0.00,798.00,VWS V14.01,2013-05-21 18:44:00,
2013-05-21 14:49:00,83.3,70.3,29.88,NE,36,0.0,2.0,65,0.00,,---,0.00,935.00,VWS V14.01,2013-05-21 18:49:00,
2013-05-21 14:50:00,83.3,69.9,29.88,NE,36,0.0,2.0,64,0.00,,---,0.00,954.00,VWS V14.01,2013-05-21 18:50:00,
2013-05-21 14:54:00,83.3,68.9,29.88,NE,36,0.0,2.0,62,0.00,,---,0.00,311.00,VWS V14.01,2013-05-21 18:54:00,
2013-05-21 14:59:00,83.3,69.9,29.88,NE,36,0.0,0.0,64,0.00,,---,0.00,954.00,VWS V14.01,2013-05-21 18:59:00,
2013-05-21 15:00:00,83.5,69.1,29.88,West,271,0.0,3.0,62,0.00,,---,0.00,673.00,VWS V14.01,2013-05-21 19:00:00,
2013-05-21 15:04:00,83.2,68.4,29.89,NE,35,0.0,2.0,61,0.00,,---,0.00,1016.00,VWS V14.01,2013-05-21 19:04:00,
2013-05-21 15:09:00,83.6,68.7,29.88,West,271,0.0,0.0,61,0.00,,---,0.00,645.00,VWS V14.01,2013-05-21 19:09:00,
2013-05-21 15:10:00,83.7,71.1,29.88,SW,225,1.0,4.0,66,0.00,,---,0.00,1062.00,VWS V14.01,2013-05-21 19:10:00,
2013-05-21 15:15:00,83.7,69.8,29.88,WNW,299,1.0,3.0,63,0.00,,---,0.00,311.00,VWS V14.01,2013-05-21 19:15:00,
2013-05-21 15:20:00,83.7,71.6,29.88,SW,221,2.0,6.0,67,0.00,,---,0.00,1056.00,VWS V14.01,2013-05-21 19:20:00,
2013-05-21 15:25:00,83.7,70.2,29.88,SW,232,1.0,6.0,64,0.00,,---,0.00,1014.00,VWS V14.01,2013-05-21 19:25:00,
2013-05-21 15:30:00,83.9,70.4,29.87,West,273,1.0,2.0,64,0.00,,---,0.00,1000.00,VWS V14.01,2013-05-21 19:30:00,
2013-05-21 15:35:00,84.1,71.1,29.87,SW,236,0.0,3.0,65,0.00,,---,0.00,1013.00,VWS V14.01,2013-05-21 19:35:00,
2013-05-21 15:40:00,84.6,68.7,29.86,SW,236,0.0,4.0,59,0.00,,---,0.00,1023.00,VWS V14.01,2013-05-21 19:40:00,
2013-05-21 15:45:00,84.6,68.2,29.86,SW,236,0.0,4.0,58,0.00,,---,0.00,455.00,VWS V14.01,2013-05-21 19:45:00,
2013-05-21 15:50:00,84.9,69.0,29.85,WSW,237,0.0,2.0,59,0.00,,---,0.00,930.00,VWS V14.01,2013-05-21 19:50:00,
2013-05-21 15:55:00,84.7,70.2,29.85,WSW,237,0.0,2.0,62,0.00,,---,0.00,167.00,VWS V14.01,2013-05-21 19:55:00,
2013-05-21 16:00:00,84.4,71.8,29.84,North,11,0.0,2.0,66,0.00,,---,0.00,193.00,VWS V14.01,2013-05-21 20:00:00,
2013-05-21 16:01:00,84.4,70.4,29.84,WSW,237,0.0,0.0,63,0.00,,---,0.00,898.00,VWS V14.01,2013-05-21 20:01:00,
2013-05-21 16:06:00,84.5,71.0,29.84,NNE,12,0.0,2.0,64,0.00,,---,0.00,162.00,VWS V14.01,2013-05-21 20:06:00,
2013-05-21 16:10:00,84.6,70.2,29.84,North,11,0.0,1.0,62,0.00,,---,0.00,780.00,VWS V14.01,2013-05-21 20:10:00,
2013-05-21 16:11:00,84.3,70.3,29.84,North,11,0.0,1.0,63,0.00,,---,0.00,858.00,VWS V14.01,2013-05-21 20:11:00,
2013-05-21 16:16:00,84.4,70.9,29.84,North,11,0.0,1.0,64,0.00,,---,0.00,805.00,VWS V14.01,2013-05-21 20:16:00,
2013-05-21 16:20:00,84.9,69.0,29.83,WSW,252,0.0,4.0,59,0.00,,---,0.00,751.00,VWS V14.01,2013-05-21 20:20:00,
2013-05-21 16:21:00,84.8,69.9,29.84,WSW,258,1.0,2.0,61,0.00,,---,0.00,782.00,VWS V14.01,2013-05-21 20:21:00,
2013-05-21 16:26:00,84.8,68.4,29.83,WNW,285,2.0,2.0,58,0.00,,---,0.00,766.00,VWS V14.01,2013-05-21 20:26:00,
2013-05-21 16:30:00,85.4,70.9,29.82,WSW,252,0.0,3.0,62,0.00,,---,0.00,722.00,VWS V14.01,2013-05-21 20:30:00,
2013-05-21 16:31:00,85.0,69.1,29.83,WSW,252,1.0,3.0,59,0.00,,---,0.00,735.00,VWS V14.01,2013-05-21 20:31:00,
2013-05-21 16:36:00,85.2,70.2,29.83,WSW,252,0.0,3.0,61,0.00,,---,0.00,735.00,VWS V14.01,2013-05-21 20:36:00,
2013-05-21 16:40:00,85.8,68.3,29.82,NNE,22,0.0,2.0,56,0.00,,---,0.00,679.00,VWS V14.01,2013-05-21 20:40:00,
2013-05-21 16:41:00,85.6,70.6,29.82,NNE,20,0.0,2.0,61,0.00,,---,0.00,707.00,VWS V14.01,2013-05-21 20:41:00,
2013-05-21 16:46:00,85.8,69.8,29.83,NNE,20,0.0,2.0,59,0.00,,---,0.00,696.00,VWS V14.01,2013-05-21 20:46:00,
2013-05-21 16:50:00,85.7,68.7,29.82,NNW,340,0.0,4.0,57,0.00,,---,0.00,650.00,VWS V14.01,2013-05-21 20:50:00,
2013-05-21 16:52:00,85.7,70.2,29.82,NNE,22,0.0,1.0,60,0.00,,---,0.00,680.00,VWS V14.01,2013-05-21 20:52:00,
2013-05-21 16:57:00,85.8,67.2,29.82,NNW,340,0.0,4.0,54,0.00,,---,0.00,642.00,VWS V14.01,2013-05-21 20:57:00,
2013-05-21 17:00:00,85.8,68.8,29.82,NNW,342,0.0,2.0,57,0.00,,---,0.00,654.00,VWS V14.01,2013-05-21 21:00:00,
2013-05-21 17:02:00,85.6,70.1,29.83,NNW,335,0.0,1.0,60,0.00,,---,0.00,580.00,VWS V14.01,2013-05-21 21:02:00,
2013-05-21 17:07:00,85.7,70.2,29.82,NNW,341,0.0,2.0,60,0.00,,---,0.00,645.00,VWS V14.01,2013-05-21 21:07:00,
2013-05-21 17:10:00,86.0,69.0,29.82,SW,231,0.0,3.0,57,0.00,,---,0.00,594.00,VWS V14.01,2013-05-21 21:10:00,
2013-05-21 17:12:00,85.8,68.3,29.82,North,5,0.0,3.0,56,0.00,,---,0.00,635.00,VWS V14.01,2013-05-21 21:12:00,
2013-05-21 17:17:00,86.0,70.5,29.83,SW,222,2.0,3.0,60,0.00,,---,0.00,594.00,VWS V14.01,2013-05-21 21:17:00,
2013-05-21 17:20:00,86.1,70.1,29.82,SW,231,0.0,1.0,59,0.00,,---,0.00,555.00,VWS V14.01,2013-05-21 21:20:00,
2013-05-21 17:22:00,86.0,69.0,29.82,SW,231,0.0,1.0,57,0.00,,---,0.00,596.00,VWS V14.01,2013-05-21 21:22:00,
2013-05-21 17:27:00,86.1,68.1,29.82,SW,231,0.0,1.0,55,0.00,,---,0.00,554.00,VWS V14.01,2013-05-21 21:27:00,
2013-05-21 17:30:00,86.2,67.6,29.82,SW,231,0.0,2.0,54,0.00,,---,0.00,508.00,VWS V14.01,2013-05-21 21:30:00,
2013-05-21 17:33:00,86.1,69.1,29.82,SW,227,1.0,1.0,57,0.00,,---,0.00,541.00,VWS V14.01,2013-05-21 21:33:00,
2013-05-21 17:38:00,86.2,67.1,29.82,SW,231,0.0,2.0,53,0.00,,---,0.00,519.00,VWS V14.01,2013-05-21 21:38:00,
2013-05-21 17:40:00,86.7,69.1,29.82,SW,231,1.0,1.0,56,0.00,,---,0.00,492.00,VWS V14.01,2013-05-21 21:40:00,
2013-05-21 17:43:00,86.4,68.9,29.82,SW,231,0.0,1.0,56,0.00,,---,0.00,501.00,VWS V14.01,2013-05-21 21:43:00,
2013-05-21 17:48:00,86.6,69.6,29.82,SW,227,0.0,1.0,57,0.00,,---,0.00,492.00,VWS V14.01,2013-05-21 21:48:00,
2013-05-21 17:50:00,86.9,68.8,29.82,SW,231,0.0,2.0,55,0.00,,---,0.00,462.00,VWS V14.01,2013-05-21 21:50:00,
2013-05-21 17:53:00,86.8,67.1,29.82,SW,231,0.0,1.0,52,0.00,,---,0.00,478.00,VWS V14.01,2013-05-21 21:53:00,
2013-05-21 17:58:00,86.9,68.8,29.82,SW,231,0.0,2.0,55,0.00,,---,0.00,466.00,VWS V14.01,2013-05-21 21:58:00,
2013-05-21 18:00:00,86.2,67.6,29.82,SW,234,0.0,4.0,54,0.00,,---,0.00,448.00,VWS V14.01,2013-05-21 22:00:00,
2013-05-21 18:03:00,86.8,68.7,29.82,SW,234,0.0,4.0,55,0.00,,---,0.00,454.00,VWS V14.01,2013-05-21 22:03:00,
2013-05-21 18:08:00,86.3,67.7,29.82,SW,234,0.0,4.0,54,0.00,,---,0.00,448.00,VWS V14.01,2013-05-21 22:08:00,
2013-05-21 18:10:00,85.9,69.4,29.81,SW,234,0.0,2.0,58,0.00,,---,0.00,424.00,VWS V14.01,2013-05-21 22:10:00,
2013-05-21 18:13:00,85.9,69.9,29.81,SW,234,1.0,1.0,59,0.00,,---,0.00,445.00,VWS V14.01,2013-05-21 22:13:00,
2013-05-21 18:18:00,85.9,67.9,29.81,SW,234,0.0,2.0,55,0.00,,---,0.00,424.00,VWS V14.01,2013-05-21 22:18:00,
2013-05-21 18:20:00,85.7,68.7,29.81,SW,234,0.0,4.0,57,0.00,,---,0.00,360.00,VWS V14.01,2013-05-21 22:20:00,
2013-05-21 18:23:00,85.9,68.4,29.81,SW,234,0.0,1.0,56,0.00,,---,0.00,390.00,VWS V14.01,2013-05-21 22:23:00,
2013-05-21 18:28:00,85.7,68.7,29.81,SW,234,0.0,4.0,57,0.00,,---,0.00,360.00,VWS V14.01,2013-05-21 22:28:00,
2013-05-21 18:30:00,85.1,68.2,29.81,WSW,240,1.0,4.0,57,0.00,,---,0.00,274.00,VWS V14.01,2013-05-21 22:30:00,
2013-05-21 18:31:00,85.0,69.1,29.81,WSW,240,1.0,3.0,59,0.00,,---,0.00,283.00,VWS V14.01,2013-05-21 22:31:00,
2013-05-21 18:34:00,85.3,68.9,29.81,SW,234,0.0,1.0,58,0.00,,---,0.00,290.00,VWS V14.01,2013-05-21 22:34:00,
2013-05-21 18:39:00,85.1,68.2,29.81,WSW,240,1.0,4.0,57,0.00,,---,0.00,274.00,VWS V14.01,2013-05-21 22:39:00,
2013-05-21 18:40:00,84.0,67.7,29.81,WSW,240,0.0,3.0,58,0.00,,---,0.00,236.00,VWS V14.01,2013-05-21 22:40:00,
2013-05-21 18:44:00,84.6,68.7,29.81,WSW,240,2.0,3.0,59,0.00,,---,0.00,278.00,VWS V14.01,2013-05-21 22:44:00,
2013-05-21 18:49:00,84.0,67.7,29.81,WSW,240,0.0,0.0,58,0.00,,---,0.00,236.00,VWS V14.01,2013-05-21 22:49:00,
2013-05-21 18:50:00,83.8,68.0,29.81,WSW,240,0.0,3.0,59,0.00,,---,0.00,195.00,VWS V14.01,2013-05-21 22:50:00,
2013-05-21 18:54:00,84.2,70.2,29.81,WSW,240,1.0,1.0,63,0.00,,---,0.00,207.00,VWS V14.01,2013-05-21 22:54:00,
2013-05-21 18:59:00,83.8,68.0,29.81,WSW,240,0.0,0.0,59,0.00,,---,0.00,195.00,VWS V14.01,2013-05-21 22:59:00,
2013-05-21 19:00:00,83.2,70.2,29.82,WSW,240,0.0,1.0,65,0.00,,---,0.00,137.00,VWS V14.01,2013-05-21 23:00:00,
2013-05-21 19:04:00,83.6,70.1,29.82,WSW,240,0.0,1.0,64,0.00,,---,0.00,153.00,VWS V14.01,2013-05-21 23:04:00,
2013-05-21 19:09:00,83.2,70.2,29.82,WSW,240,0.0,1.0,65,0.00,,---,0.00,139.00,VWS V14.01,2013-05-21 23:09:00,
2013-05-21 19:10:00,82.5,69.6,29.83,WSW,240,0.0,1.0,65,0.00,,---,0.00,65.00,VWS V14.01,2013-05-21 23:10:00,
2013-05-21 19:14:00,82.7,70.2,29.82,WSW,240,0.0,1.0,66,0.00,,---,0.00,118.00,VWS V14.01,2013-05-21 23:14:00,
2013-05-21 19:20:00,82.4,70.3,29.83,WSW,240,0.0,0.0,67,0.00,,---,0.00,63.00,VWS V14.01,2013-05-21 23:20:00,
2013-05-21 19:25:00,81.7,69.2,29.83,WSW,240,0.0,0.0,66,0.00,,---,0.00,44.00,VWS V14.01,2013-05-21 23:25:00,
2013-05-21 19:30:00,80.9,69.4,29.83,WSW,238,0.0,1.0,68,0.00,,---,0.00,33.00,VWS V14.01,2013-05-21 23:30:00,
2013-05-21 19:35:00,80.1,68.6,29.83,WSW,244,1.0,2.0,68,0.00,,---,0.00,32.00,VWS V14.01,2013-05-21 23:35:00,
2013-05-21 19:40:00,79.5,67.6,29.83,WSW,242,1.0,3.0,67,0.00,,---,0.00,28.00,VWS V14.01,2013-05-21 23:40:00,
2013-05-21 19:45:00,79.1,68.5,29.83,WSW,242,0.0,3.0,70,0.00,,---,0.00,21.00,VWS V14.01,2013-05-21 23:45:00,
2013-05-21 19:50:00,78.7,68.1,29.83,WSW,242,0.0,1.0,70,0.00,,---,0.00,14.00,VWS V14.01,2013-05-21 23:50:00,
2013-05-21 19:55:00,78.1,67.1,29.83,SW,220,7.0,7.0,69,0.00,,---,0.00,7.00,VWS V14.01,2013-05-21 23:55:00,
2013-05-21 20:00:00,77.1,65.3,29.84,NNE,21,0.0,4.0,67,0.00,,---,0.00,5.00,VWS V14.01,2013-05-22 00:00:00,
2013-05-21 20:05:00,76.2,64.4,29.85,SSE,165,0.0,11.0,67,0.00,,---,0.00,5.00,VWS V14.01,2013-05-22 00:05:00,
2013-05-21 20:10:00,71.5,62.0,29.90,WNW,300,7.0,19.0,72,0.00,,---,0.00,0.00,VWS V14.01,2013-05-22 00:10:00,
2013-05-21 20:11:00,75.0,63.3,29.89,South,173,10.0,17.0,67,0.00,,---,0.00,0.00,VWS V14.01,2013-05-22 00:11:00,
2013-05-21 20:16:00,72.7,62.4,29.89,WSW,246,5.0,19.0,70,0.00,,---,0.00,0.00,VWS V14.01,2013-05-22 00:16:00,
2013-05-21 20:20:00,68.1,62.4,29.87,WSW,253,11.0,16.0,82,0.06,,---,0.06,0.00,VWS V14.01,2013-05-22 00:20:00,
2013-05-21 20:21:00,71.0,61.9,29.87,WSW,242,3.0,15.0,73,0.00,,---,0.00,0.00,VWS V14.01,2013-05-22 00:21:00,
2013-05-21 20:26:00,69.4,62.6,29.88,WSW,252,12.0,16.0,79,0.03,,---,0.03,0.00,VWS V14.01,2013-05-22 00:26:00,
2013-05-21 20:30:00,65.2,61.9,29.89,West,273,1.0,14.0,89,0.08,,---,0.08,0.00,VWS V14.01,2013-05-22 00:30:00,
2013-05-21 20:31:00,67.1,62.5,29.87,West,276,8.0,13.0,85,0.07,,---,0.07,0.00,VWS V14.01,2013-05-22 00:31:00,
2013-05-21 20:36:00,65.7,62.0,29.88,West,261,5.0,14.0,88,0.08,,---,0.08,0.00,VWS V14.01,2013-05-22 00:36:00,
2013-05-21 20:40:00,64.5,61.5,29.88,West,266,0.0,9.0,90,0.08,,---,0.08,0.00,VWS V14.01,2013-05-22 00:40:00,
2013-05-21 20:41:00,64.9,61.6,29.88,WSW,246,0.0,9.0,89,0.08,,---,0.08,0.00,VWS V14.01,2013-05-22 00:41:00,
2013-05-21 20:46:00,64.6,61.6,29.88,WSW,248,3.0,9.0,90,0.08,,---,0.08,0.00,VWS V14.01,2013-05-22 00:46:00,
2013-05-21 20:50:00,64.3,61.9,29.88,NW,320,2.0,4.0,92,0.08,,---,0.08,0.00,VWS V14.01,2013-05-22 00:50:00,
2013-05-21 20:51:00,64.4,61.7,29.89,SSE,162,1.0,3.0,91,0.08,,---,0.08,0.00,VWS V14.01,2013-05-22 00:51:00,
2013-05-21 20:56:00,64.3,61.6,29.89,WNW,302,0.0,4.0,91,0.08,,---,0.08,0.00,VWS V14.01,2013-05-22 00:56:00,
2013-05-21 21:00:00,64.1,61.7,29.88,WSW,240,1.0,6.0,92,0.08,,---,0.08,0.00,VWS V14.01,2013-05-22 01:00:00,
2013-05-21 21:02:00,64.3,61.9,29.88,WNW,291,0.0,3.0,92,0.08,,---,0.08,0.00,VWS V14.01,2013-05-22 01:02:00,
2013-05-21 21:07:00,64.2,61.8,29.88,WNW,303,0.0,6.0,92,0.08,,---,0.08,0.00,VWS V14.01,2013-05-22 01:07:00,
2013-05-21 21:10:00,64.0,61.6,29.89,NE,55,0.0,3.0,92,0.08,,---,0.08,0.00,VWS V14.01,2013-05-22 01:10:00,
2013-05-21 21:12:00,64.1,61.7,29.89,WNW,299,0.0,3.0,92,0.08,,---,0.08,0.00,VWS V14.01,2013-05-22 01:12:00,
2013-05-21 21:17:00,64.0,61.6,29.89,WSW,246,0.0,3.0,92,0.08,,---,0.08,0.00,VWS V14.01,2013-05-22 01:17:00,
2013-05-21 21:20:00,63.8,61.7,29.88,NW,315,0.0,4.0,93,0.08,,---,0.08,0.00,VWS V14.01,2013-05-22 01:20:00,
2013-05-21 21:22:00,64.0,61.6,29.89,NE,46,0.0,3.0,92,0.08,,---,0.08,0.00,VWS V14.01,2013-05-22 01:22:00,
2013-05-21 21:27:00,63.9,61.8,29.89,NW,315,0.0,4.0,93,0.08,,---,0.08,0.00,VWS V14.01,2013-05-22 01:27:00,
2013-05-21 21:30:00,63.6,61.5,29.89,WNW,300,0.0,2.0,93,0.02,,---,0.08,0.00,VWS V14.01,2013-05-22 01:30:00,
2013-05-21 21:32:00,63.8,61.7,29.89,WNW,302,0.0,2.0,93,0.02,,---,0.08,0.00,VWS V14.01,2013-05-22 01:32:00,
2013-05-21 21:37:00,63.7,61.6,29.89,WNW,300,1.0,2.0,93,0.02,,---,0.08,0.00,VWS V14.01,2013-05-22 01:37:00,
2013-05-21 21:40:00,63.6,61.5,29.88,WSW,251,0.0,4.0,93,0.00,,---,0.08,0.00,VWS V14.01,2013-05-22 01:40:00,
2013-05-21 21:42:00,63.6,61.5,29.89,WNW,297,0.0,3.0,93,0.00,,---,0.08,0.00,VWS V14.01,2013-05-22 01:42:00,
2013-05-21 21:47:00,63.6,61.5,29.88,WSW,252,0.0,4.0,93,0.00,,---,0.08,0.00,VWS V14.01,2013-05-22 01:47:00,
2013-05-21 21:50:00,63.6,61.8,29.88,WSW,252,0.0,3.0,94,0.00,,---,0.08,0.00,VWS V14.01,2013-05-22 01:50:00,
2013-05-21 21:53:00,63.6,61.8,29.88,WSW,251,1.0,3.0,94,0.00,,---,0.08,0.00,VWS V14.01,2013-05-22 01:53:00,
2013-05-21 21:58:00,63.6,61.8,29.88,WSW,252,0.0,3.0,94,0.00,,---,0.08,0.00,VWS V14.01,2013-05-22 01:58:00,
2013-05-21 22:00:00,63.6,61.8,29.88,SSE,154,1.0,2.0,94,0.00,,---,0.08,0.00,VWS V14.01,2013-05-22 02:00:00,
2013-05-21 22:03:00,63.6,61.8,29.88,WSW,252,0.0,1.0,94,0.00,,---,0.08,0.00,VWS V14.01,2013-05-22 02:03:00,
2013-05-21 22:08:00,63.6,61.8,29.88,WSW,244,1.0,2.0,94,0.00,,---,0.08,0.00,VWS V14.01,2013-05-22 02:08:00,
2013-05-21 22:10:00,63.5,61.8,29.88,ENE,57,0.0,2.0,94,0.00,,---,0.08,0.00,VWS V14.01,2013-05-22 02:10:00,
2013-05-21 22:13:00,63.6,61.8,29.88,ENE,57,0.0,2.0,94,0.00,,---,0.08,0.00,VWS V14.01,2013-05-22 02:13:00,
2013-05-21 22:18:00,63.5,61.8,29.88,ENE,57,0.0,2.0,94,0.00,,---,0.08,0.00,VWS V14.01,2013-05-22 02:18:00,
2013-05-21 22:20:00,63.4,61.7,29.89,NE,56,0.0,2.0,94,0.01,,---,0.09,0.00,VWS V14.01,2013-05-22 02:20:00,
2013-05-21 22:23:00,63.4,61.7,29.89,NE,56,0.0,2.0,94,0.00,,---,0.08,0.00,VWS V14.01,2013-05-22 02:23:00,
2013-05-21 22:28:00,63.4,61.7,29.89,NE,56,0.0,2.0,94,0.01,,---,0.09,0.00,VWS V14.01,2013-05-22 02:28:00,
2013-05-21 22:30:00,63.4,62.0,29.88,NE,56,0.0,1.0,95,0.01,,---,0.09,0.00,VWS V14.01,2013-05-22 02:30:00,
2013-05-21 22:33:00,63.4,62.0,29.88,NE,56,0.0,1.0,95,0.01,,---,0.09,0.00,VWS V14.01,2013-05-22 02:33:00,
2013-05-21 22:38:00,63.4,62.0,29.88,NE,56,0.0,1.0,95,0.01,,---,0.09,0.00,VWS V14.01,2013-05-22 02:38:00,
2013-05-21 22:40:00,63.5,62.0,29.88,ENE,57,0.0,2.0,95,0.01,,---,0.09,0.00,VWS V14.01,2013-05-22 02:40:00,
2013-05-21 22:44:00,63.4,62.0,29.89,NE,56,0.0,0.0,95,0.01,,---,0.09,0.00,VWS V14.01,2013-05-22 02:44:00,
2013-05-21 22:49:00,63.5,62.0,29.88,ENE,57,0.0,2.0,95,0.01,,---,0.09,0.00,VWS V14.01,2013-05-22 02:49:00,
2013-05-21 22:50:00,63.4,62.0,29.88,ENE,74,0.0,2.0,95,0.01,,---,0.09,0.00,VWS V14.01,2013-05-22 02:50:00,
2013-05-21 22:54:00,63.5,62.0,29.88,ENE,74,0.0,2.0,95,0.01,,---,0.09,0.00,VWS V14.01,2013-05-22 02:54:00,
2013-05-21 22:59:00,63.4,62.0,29.88,ENE,74,0.0,1.0,95,0.01,,---,0.09,0.00,VWS V14.01,2013-05-22 02:59:00,
2013-05-21 23:00:00,63.5,62.3,29.89,ENE,74,0.0,1.0,96,0.01,,---,0.09,0.00,VWS V14.01,2013-05-22 03:00:00,
2013-05-21 23:04:00,63.4,62.0,29.88,ENE,74,0.0,1.0,95,0.01,,---,0.09,0.00,VWS V14.01,2013-05-22 03:04:00,
2013-05-21 23:09:00,63.5,62.3,29.89,ENE,74,0.0,0.0,96,0.01,,---,0.09,0.00,VWS V14.01,2013-05-22 03:09:00,
2013-05-21 23:10:00,63.7,62.5,29.90,ENE,74,0.0,1.0,96,0.01,,---,0.09,0.00,VWS V14.01,2013-05-22 03:10:00,
2013-05-21 23:14:00,63.5,62.3,29.90,ENE,74,0.0,0.0,96,0.01,,---,0.09,0.00,VWS V14.01,2013-05-22 03:14:00,
2013-05-21 23:19:00,63.7,62.5,29.90,ENE,74,1.0,2.0,96,0.01,,---,0.09,0.00,VWS V14.01,2013-05-22 03:19:00,
2013-05-21 23:20:00,63.5,62.3,29.89,SW,220,0.0,5.0,96,0.01,,---,0.09,0.00,VWS V14.01,2013-05-22 03:20:00,
2013-05-21 23:24:00,63.6,62.4,29.90,SW,220,0.0,5.0,96,0.01,,---,0.09,0.00,VWS V14.01,2013-05-22 03:24:00,
2013-05-21 23:29:00,63.5,62.3,29.89,SW,220,0.0,0.0,96,0.00,,---,0.09,0.00,VWS V14.01,2013-05-22 03:29:00,
2013-05-21 23:30:00,63.4,62.2,29.87,ENE,66,0.0,2.0,96,0.00,,---,0.09,0.00,VWS V14.01,2013-05-22 03:30:00,
2013-05-21 23:34:00,63.4,62.2,29.88,SSW,208,0.0,2.0,96,0.00,,---,0.09,0.00,VWS V14.01,2013-05-22 03:34:00,
2013-05-21 23:40:00,63.4,62.2,29.87,ENE,66,2.0,2.0,96,0.00,,---,0.09,0.00,VWS V14.01,2013-05-22 03:40:00,
2013-05-21 23:45:00,63.4,62.2,29.87,ENE,66,0.0,2.0,96,0.00,,---,0.09,0.00,VWS V14.01,2013-05-22 03:45:00,
2013-05-21 23:50:00,63.4,62.2,29.87,ENE,68,0.0,0.0,96,0.00,,---,0.09,0.00,VWS V14.01,2013-05-22 03:50:00,
2013-05-21 23:55:00,63.4,62.2,29.87,ENE,68,0.0,0.0,96,0.00,,---,0.09,0.00,VWS V14.01,2013-05-22 03:55:00,